CheckWX is a tool to help pilots better visualize weather data.  It is not intended as a substitute for an official pre-flight weather briefing.

10:05:43 UTC

EGUW METAR
RAF Wattisham Airport
Stowmarket, United Kingdom
Current

1 hour ago

EGUW 250850Z AUTO 14005KT 9999 NCD 26/16 Q1019
Observed
Aug-25 @ 08:50 UTC
Wind
  • 140° at 5 KTS
Visibility
10,000+ meters
Flight Rules
VFR
Cloud Levels
  • Clear skies
Temperature
26°C / 79°F
Dewpoint
16°C / 61°F
Humidity
54%
Altimeter
30.09" Hg
Pressure
1018.92 hPa
Previous

2 hours ago

EGUW 250750Z AUTO 14003KT 9000 FEW180/// 24/17 Q1018
Observed
Aug-25 @ 07:50 UTC
Wind
  • 140° at 3 KTS
Visibility
9,000 meters
Flight Rules
VFR
Cloud Levels
  • Few at 18,000' AGL
Temperature
24°C / 75°F
Dewpoint
17°C / 63°F
Humidity
65%
Altimeter
30.06" Hg
Pressure
1017.92 hPa
Previous

3 hours ago

EGUW 250650Z AUTO 12003KT 8000 HZ BKN190/// 20/15 Q1018
Observed
Aug-25 @ 06:50 UTC
Wind
  • 120° at 3 KTS
Visibility
8,000 meters
Flight Rules
MVFR
Conditions
Haze
Cloud Levels
  • Broken at 19,000' AGL
Temperature
20°C / 68°F
Dewpoint
15°C / 59°F
Humidity
73%
Altimeter
30.06" Hg
Pressure
1017.92 hPa